Flight Track Log - Related Links

Times and Time Zones

All times are in EDT time to prevent confusion due to time zone crossing. See the N888BW flight status page for this flight to view local times or setup timezone preferences in your user account.

Time Position Orientation Groundspeed Altitude Reporting Facility
EDT Latitude Longitude Course Direction KTS MPH feet Rate Location/Type
Sat 10:23:59 PM 39.1492 -74.6414 33° Northeast 115 132 5,600  Level Washington Center
Sat 10:25:00 PM 39.1776 -74.6199 34° Northeast  Level Estimated
Sat 10:26:00 PM 39.1441 -74.7940 33° Northeast  Level Estimated
Sat 10:27:00 PM 39.1712 -74.7710 33° Northeast  Level Estimated
Sat 10:28:00 PM 39.1983 -74.7481 33° Northeast  Level Estimated
Sat 10:28:00 PM 39.2525 -74.5408 26° Northeast 120 138 5,500  Level Washington Center
Sat 10:29:00 PM 39.2254 -74.7251 33° Northeast  Level Estimated
Sat 10:29:00 PM 39.2806 -74.5199 30° Northeast  Level Estimated
Sat 10:32:00 PM 39.3822 -74.4928 26° Northeast  Level FlightAware Approximate
Sat 10:32:00 PM 39.3539 -74.4456 30° Northeast 113 130 5,500  Level Washington Center
Sat 10:33:00 PM 39.4114 -74.4746 26° Northeast  Level FlightAware Approximate
Sat 10:33:00 PM 39.3845 -74.4319 19° North  Level FlightAware Approximate
Sat 10:36:00 PM 39.4771 -74.3729 30° Northeast  Level Estimated
Sat 10:36:02 PM 39.4592 -74.3497 19° North 114 131 5,500  Level Washington Center
Sat 10:37:00 PM 39.5052 -74.3519 30° Northeast  Level Estimated
Sat 10:38:00 PM 39.5149 -74.3095 29° Northeast  Level Estimated
Sat 10:40:00 PM 39.5992 -74.3361 19° North  Level FlightAware Approximate
Sat 10:40:26 PM 39.5747 -74.2536 29° Northeast 111 128 5,600  Level Washington Center
Sat 10:41:00 PM 39.6298 -74.3223 19° North  Level FlightAware Approximate
Sat 10:42:00 PM 39.6192 -74.2218 29° Northeast  Level Estimated
Sat 10:45:00 PM 39.7130 -74.1657 29° Northeast  Level Estimated
Sat 10:49:00 PM 39.8180 -74.0792 29° Northeast  Level Estimated
Sat 10:50:00 PM 39.8464 -74.0588 29° Northeast  Level Estimated
Sat 10:51:00 PM 39.8747 -74.0383 29° Northeast  Level Estimated
Sat 10:52:00 PM 39.9052 -74.0240 20° North  Level FlightAware Approximate
Sat 10:53:00 PM 39.9357 -74.0097 20° North  Level FlightAware Approximate
Sat 10:54:00 PM 39.9662 -73.9954 20° North  Level FlightAware Approximate
Sat 10:55:00 PM 39.9967 -73.9810 20° North  Level FlightAware Approximate
Sat 10:56:00 PM 40.0272 -73.9667 20° North  Level FlightAware Approximate
Sat 10:57:00 PM 40.0577 -73.9523 20° North  Level FlightAware Approximate
Sat 10:58:00 PM 40.0882 -73.9380 20° North  Level FlightAware Approximate
Sat 10:59:00 PM 40.1187 -73.9236 20° North  Level FlightAware Approximate
Sat 11:00:00 PM 40.1461 -73.9009 33° Northeast  Level Estimated
Sat 11:01:00 PM 40.1733 -73.8777 33° Northeast  Level FlightAware Approximate
Sat 11:02:00 PM 40.2005 -73.8546 33° Northeast  Level FlightAware Approximate
Sat 11:03:00 PM 40.2276 -73.8314 33° Northeast  Level FlightAware Approximate
Sat 11:04:00 PM 40.2548 -73.8082 33° Northeast  Level FlightAware Approximate
Sat 11:05:00 PM 40.2819 -73.7850 33° Northeast  Level FlightAware Approximate
Sat 11:06:00 PM 40.3091 -73.7617 33° Northeast  Level FlightAware Approximate
Sat 11:07:00 PM 40.3362 -73.7385 33° Northeast  Level FlightAware Approximate
Sat 11:08:00 PM 40.3634 -73.7152 33° Northeast  Level FlightAware Approximate
Sat 11:09:00 PM 40.3905 -73.6919 33° Northeast  Level FlightAware Approximate
Sat 11:10:00 PM 40.4176 -73.6686 33° Northeast  Level FlightAware Approximate
Sat 11:11:00 PM 40.4448 -73.6453 33° Northeast  Level FlightAware Approximate
Sat 11:12:00 PM 40.4719 -73.6219 33° Northeast  Level FlightAware Approximate
Sat 11:13:00 PM 40.4990 -73.5986 33° Northeast  Level FlightAware Approximate
Sat 11:14:00 PM 40.5266 -73.5764 21° North  Level Estimated
Sat 11:15:00 PM 40.5532 -73.5484 21° North  Level FlightAware Approximate
Sat 11:16:00 PM 40.5835 -73.5332 37° Northeast  Level FlightAware Approximate
Sat 11:17:00 PM 40.6093 -73.5074 37° Northeast  Level FlightAware Approximate
Sat 11:18:00 PM 40.6352 -73.4815 37° Northeast  Level FlightAware Approximate
Sat 11:19:00 PM 40.6610 -73.4557 37° Northeast  Level FlightAware Approximate
Sat 11:20:00 PM 40.6868 -73.4299 37° Northeast  Level FlightAware Approximate
Sat 11:21:00 PM 40.7126 -73.4040 37° Northeast  Level FlightAware Approximate
Sat 11:22:00 PM 40.7167 -73.4000 37° Northeast  Level FlightAware Approximate
Sat 11:23:00 PM 40.7288 -73.4134 37° Northeast  Level Estimated
Sat 11:24:00 PM 40.7288 -73.4134 37° Northeast  Level Estimated
Sat 11:25:00 PM 40.7288 -73.4134 37° Northeast  Level Estimated
Sat 11:26:00 PM 40.7288 -73.4134 37° Northeast  Level Estimated
Sat 11:27:00 PM 40.7288 -73.4134 37° Northeast  Level Estimated
Sat 11:28:00 PM 40.7288 -73.4134 37° Northeast  Level Estimated
Sat 11:29:00 PM 40.7288 -73.4134 37° Northeast  Level Estimated
Sat 11:30:00 PM 40.7288 -73.4134 37° Northeast  Level Estimated
Sat 11:31:00 PM 40.7288 -73.4134 37° Northeast  Level Estimated
Sat 11:32:00 PM 40.7288 -73.4134 37° Northeast  Level Estimated
Sat 11:33:00 PM 40.7288 -73.4134 37° Northeast  Level Estimated
Sat 11:34:00 PM 40.7288 -73.4134 37° Northeast  Level Estimated
Sat 11:35:00 PM 40.7288 -73.4134 37° Northeast  Level Estimated
Sat 11:36:00 PM 40.7288 -73.4134 37° Northeast  Level Estimated
Sat 11:37:00 PM 40.7288 -73.4134 37° Northeast  Level Estimated
Sat 11:38:00 PM 40.7288 -73.4134 37° Northeast  Level Estimated
Sat 11:39:00 PM 40.7288 -73.4134 37° Northeast  Level Estimated
Sat 11:40:00 PM 40.7288 -73.4134 37° Northeast  Level Estimated
Sat 11:41:00 PM 40.7288 -73.4134 37° Northeast  Level Estimated

Login

Don't have an account? Register now (free) for customized features, flight alerts, and more!